Camellia — VRCP9 — position and weather

sailwx.info

Track history (hours):
 
Tides and Currents Weather Stations Pressure Air Temp Water Temp Dewpoint Dewpoint Depression Visibility Wind Speed Wind Dir Waves Ship Positions

Camellia

Last reported at 2016-Aug-24 11:26 UTC. Time now 2016-Aug-25 02:41 UTC.
Position N 37°04' W 029°22'.

Length 222 m; draft 9.8 m.

Type: Ship (hazmat cat C). MMSI: 477791900.

Date/timePositionNaut miles runAvg speedWind from/ knotsBaromVisibWave heightAir tempDewpointWater temp
2016-Aug-24 11:26N 37°04' W 029°22'1819.9
2016-Aug-24 10:33N 37°14' W 029°05'2019.6
2016-Aug-24 09:33N 37°26' W 028°45'2020.3
2016-Aug-24 08:33N 37°38' W 028°24'2019.6
2016-Aug-24 07:33N 37°49' W 028°04'2019.5
2016-Aug-24 06:33N 38°01' W 027°44'3819.1
2016-Aug-24 04:34N 38°24' W 027°05'1919.1
2016-Aug-24 03:33N 38°35' W 026°45'2019.5
2016-Aug-24 02:30N 38°48' W 026°25'75219.2
2016-Aug-22 11:27N 45°08' W 011°53'6119.3
2016-Aug-22 08:18N 45°30' W 010°32'13319.5
2016-Aug-22 01:26N 46°07' W 007°29'1719.2
2016-Aug-22 00:33N 46°11' W 007°05'1919.3
2016-Aug-21 23:33N 46°16' W 006°38'1919.1
2016-Aug-21 22:33N 46°21' W 006°11'1919.6
2016-Aug-21 21:33N 46°27' W 005°44'1919.3
2016-Aug-21 20:33N 46°32' W 005°17'1919.0
2016-Aug-21 19:33N 46°36' W 004°50'2020.1
2016-Aug-21 18:33N 46°42' W 004°22'2019.3
2016-Aug-21 17:32N 46°47' W 003°54'1818.5
2016-Aug-21 16:33N 46°52' W 003°29'1818.2
2016-Aug-21 15:33N 46°56' W 003°03'1817.5
2016-Aug-21 14:33N 47°01' W 002°38'1414.0
2016-Aug-21 13:34N 47°09' W 002°21'1212.0
2016-Aug-21 12:34N 47°18' W 002°09'0 0.1
2016-Aug-21 11:32N 47°18' W 002°09'0 0.0
2016-Aug-21 10:32N 47°18' W 002°09'0 0.0
2016-Aug-21 09:29N 47°18' W 002°09'0 0.0
2016-Aug-21 08:32N 47°18' W 002°09'0 0.0
2016-Aug-21 07:31N 47°18' W 002°09'0 0.0
2016-Aug-21 06:34N 47°18' W 002°09'0 0.0
2016-Aug-21 05:31N 47°18' W 002°09'0 0.0
2016-Aug-21 04:31N 47°18' W 002°09'0 0.0
2016-Aug-21 03:31N 47°18' W 002°09'0 0.0
2016-Aug-21 02:31N 47°18' W 002°09'0 0.0
2016-Aug-21 01:31N 47°18' W 002°09'0 0.0
2016-Aug-21 00:31N 47°18' W 002°09'6 6.4
2016-Aug-20 23:34N 47°14' W 002°16'1110.6
2016-Aug-20 22:33N 47°05' W 002°25'1110.8
2016-Aug-20 21:34N 46°60' W 002°39'1817.6
2016-Aug-20 20:31N 47°06' W 003°04'2019.9
2016-Aug-20 19:33N 47°14' W 003°31'2020.5
2016-Aug-20 18:33N 47°22' W 003°58'4620.9
2016-Aug-20 16:22N 47°40' W 005°00'1719.2
2016-Aug-20 15:28N 47°55' W 005°14'12313.7
2016-Aug-20 06:28N 49°42' W 003°40'1415.7
2016-Aug-20 05:33N 49°49' W 003°21'1717.4
2016-Aug-20 04:34N 49°58' W 002°58'6419.8
2016-Aug-20 01:21N 49°59' W 001°19'1721.9
2016-Aug-20 00:33N 49°50' W 000°56'2020.2
2016-Aug-19 23:33N 49°39' W 000°30'1817.7
2016-Aug-19 22:33N 49°31' W 000°05'1010.2
2016-Aug-19 21:32N 49°27' E 000°10'0 0.0
2016-Aug-19 20:32N 49°27' E 000°10'0 0.0
2016-Aug-19 19:32N 49°27' E 000°10'0 0.0
2016-Aug-19 18:32N 49°27' E 000°10'0 0.0
2016-Aug-19 17:32N 49°27' E 000°10'0 0.0
2016-Aug-19 16:32N 49°27' E 000°10'0 0.0
2016-Aug-19 15:32N 49°27' E 000°10'0 0.0
2016-Aug-19 14:32N 49°27' E 000°10'0 0.0
2016-Aug-19 13:32N 49°27' E 000°10'0 0.0
2016-Aug-19 12:32N 49°27' E 000°10'0 0.0
2016-Aug-19 11:32N 49°27' E 000°10'0 0.0
2016-Aug-19 10:32N 49°27' E 000°10'0 0.0
2016-Aug-19 09:32N 49°27' E 000°10'0 0.0
2016-Aug-19 08:31N 49°27' E 000°10'0 0.0
2016-Aug-19 07:28N 49°27' E 000°10'0 0.0
2016-Aug-19 06:31N 49°27' E 000°10'0 0.0
2016-Aug-19 05:31N 49°27' E 000°10'0 0.0
2016-Aug-19 04:31N 49°27' E 000°10'0 0.0
2016-Aug-19 03:31N 49°27' E 000°10'0 0.0
2016-Aug-19 02:31N 49°27' E 000°10'0 0.0
2016-Aug-19 01:31N 49°27' E 000°10'0 0.0
2016-Aug-19 00:31N 49°28' E 000°10'0 0.0
2016-Aug-18 23:31N 49°27' E 000°10'0 0.0
2016-Aug-18 22:31N 49°27' E 000°10'0 0.0
2016-Aug-18 21:31N 49°27' E 000°10'0 0.0
2016-Aug-18 20:31N 49°27' E 000°10'0 0.0
2016-Aug-18 19:31N 49°27' E 000°10'1 0.6
2016-Aug-18 18:32N 49°27' E 000°09'1010.5
2016-Aug-18 17:33N 49°31' W 000°06'4 3.5
2016-Aug-18 16:31N 49°35' W 000°08'0 0.0
2016-Aug-18 15:31N 49°35' W 000°08'0 0.0
2016-Aug-18 14:31N 49°35' W 000°08'0 0.0
2016-Aug-18 13:33N 49°35' W 000°08'6 6.2
2016-Aug-18 12:33N 49°41' W 000°10'1919.0
2016-Aug-18 11:33N 49°59' W 000°05'1918.7
2016-Aug-18 10:34N 50°18' W 000°02'1414.1
2016-Aug-18 09:33N 50°29' E 000°11'1816.9
2016-Aug-18 08:29N 50°38' E 000°36'1918.5
2016-Aug-18 07:26N 50°50' E 001°00'1821.0
2016-Aug-18 06:33N 51°02' E 001°22'2121.4
2016-Aug-18 05:34N 51°16' E 001°48'1919.3
2016-Aug-18 04:34N 51°32' E 002°04'1818.4
2016-Aug-18 03:33N 51°47' E 002°23'1817.7
2016-Aug-18 02:33N 51°60' E 002°42'1716.9
2016-Aug-18 01:33N 52°03' E 003°09'1818.3
2016-Aug-18 00:33N 52°04' E 003°39'1212.5
2016-Aug-17 23:33N 52°02' E 003°59'7 6.9
2016-Aug-17 22:33N 51°58' E 004°08'1110.7
2016-Aug-17 21:33N 51°54' E 004°24'1 1.2
2016-Aug-17 20:33N 51°54' E 004°26'0 0.0
2016-Aug-17 19:32N 51°54' E 004°26'0 0.0
2016-Aug-17 18:32N 51°54' E 004°26'0 0.0
2016-Aug-17 17:32N 51°54' E 004°26'0 0.0
2016-Aug-17 16:31N 51°54' E 004°26'0 0.0
2016-Aug-17 15:32N 51°54' E 004°26'0 0.0
2016-Aug-17 14:31N 51°54' E 004°26'0 0.0
2016-Aug-17 13:31N 51°54' E 004°26'0 0.0
2016-Aug-17 12:32N 51°53' E 004°26'0 0.0
2016-Aug-17 11:32N 51°53' E 004°26'0 0.0
2016-Aug-17 10:31N 51°54' E 004°26'0 0.0
2016-Aug-17 09:31N 51°54' E 004°26'0 0.1
2016-Aug-17 08:33N 51°54' E 004°26'5 5.4
2016-Aug-17 07:33N 51°54' E 004°17'1111.0
2016-Aug-17 06:33N 51°60' E 004°02'1111.5
2016-Aug-17 05:33N 51°59' E 003°43'8 7.9
2016-Aug-17 04:33N 51°57' E 003°31'1212.3
2016-Aug-17 03:33N 51°52' E 003°12'1919.1
2016-Aug-17 02:33N 51°38' E 002°52'1616.3
2016-Aug-17 01:34N 51°22' E 002°46'1312.7
2016-Aug-17 00:34N 51°24' E 003°06'5 4.5
2016-Aug-16 23:32N 51°21' E 003°11'0 0.0
2016-Aug-16 22:32N 51°21' E 003°11'0 0.0
2016-Aug-16 21:32N 51°21' E 003°11'0 0.0
2016-Aug-16 20:32N 51°21' E 003°11'0 0.0
2016-Aug-16 19:32N 51°21' E 003°11'0 0.0
2016-Aug-16 18:32N 51°21' E 003°11'0 0.0
2016-Aug-16 17:32N 51°21' E 003°11'0 0.0
2016-Aug-16 16:29N 51°21' E 003°11'0 0.0
2016-Aug-16 15:32N 51°21' E 003°11'0 0.0
2016-Aug-16 14:32N 51°21' E 003°11'0 0.0
2016-Aug-16 13:32N 51°21' E 003°11'0 0.0
2016-Aug-16 12:32N 51°21' E 003°11'5 4.7
2016-Aug-16 11:33N 51°24' E 003°06'1414.0
2016-Aug-16 10:33N 51°22' E 002°44'6 6.4
2016-Aug-16 09:34N 51°22' E 002°34'1414.2
2016-Aug-16 08:33N 51°16' E 002°12'1818.2
2016-Aug-16 07:33N 51°06' E 001°48'16 5.2
2016-Aug-16 04:33N 51°01' E 002°11'0 0.0
2016-Aug-16 03:27N 51°01' E 002°11'0 0.0
2016-Aug-16 02:33N 51°01' E 002°11'0 0.0
2016-Aug-16 01:33N 51°01' E 002°11'0 0.0
2016-Aug-16 00:32N 51°01' E 002°11'0 0.0
2016-Aug-15 23:26N 51°01' E 002°11'0 0.0
2016-Aug-15 22:32N 51°01' E 002°11'0 0.0
2016-Aug-15 21:11N 51°01' E 002°11'0 0.0
2016-Aug-15 20:26N 51°01' E 002°11'0 0.0
2016-Aug-15 19:29N 51°01' E 002°11'0 0.0
2016-Aug-15 18:29N 51°01' E 002°11'0 0.0
2016-Aug-15 17:29N 51°01' E 002°11'0 0.0
2016-Aug-15 16:32N 51°01' E 002°11'0 0.0
2016-Aug-15 15:26N 51°01' E 002°11'0 0.0
2016-Aug-15 14:20N 51°01' E 002°11'0 0.0
2016-Aug-15 13:32N 51°01' E 002°11'0 0.0
2016-Aug-15 12:32N 51°01' E 002°11'0 0.0
2016-Aug-15 11:23N 51°01' E 002°11'0 0.0
2016-Aug-15 10:05N 51°01' E 002°11'0 0.9
2016-Aug-15 09:32N 51°01' E 002°11'1111.1
2016-Aug-15 08:33N 51°02' E 001°54'1616.1
2016-Aug-15 07:33N 50°55' E 001°31'6120.1
2016-Aug-15 04:31N 50°21' E 000°11'2021.1
2016-Aug-15 03:33N 50°15' W 000°19'2320.7
2016-Aug-15 02:27N 50°09' W 000°53'1820.0
2016-Aug-15 01:33N 50°04' W 001°21'1919.2
2016-Aug-15 00:33N 49°59' W 001°50'1918.6
2016-Aug-14 23:33N 49°55' W 002°18'1918.9
2016-Aug-14 22:33N 49°50' W 002°46'2019.7
2016-Aug-14 21:33N 49°44' W 003°15'2019.8
2016-Aug-14 20:33N 49°39' W 003°45'2020.0
2016-Aug-14 19:33N 49°34' W 004°15'2020.1
2016-Aug-14 18:33N 49°29' W 004°45'2019.7
2016-Aug-14 17:32N 49°23' W 005°14'8 8.5
2016-Aug-14 16:33N 49°20' W 005°26'0 0.4
2016-Aug-14 15:33N 49°21' W 005°26'9 8.9
2016-Aug-14 14:33N 49°18' W 005°39'2121.1
2016-Aug-14 13:33N 49°11' W 006°10'2221.1
2016-Aug-14 12:32N 49°05' W 006°41'  
Track history (hours):
 
Tides and Currents Weather Stations Pressure Air Temp Water Temp Dewpoint Dewpoint Depression Visibility Wind Speed Wind Dir Waves Ship Positions

Camellia

Last reported at 2016-Aug-24 11:26 UTC. Time now 2016-Aug-25 02:41 UTC.
Position N 37°04' W 029°22'.

Length 222 m; draft 9.8 m.

Type: Ship (hazmat cat C). MMSI: 477791900.

Date/timePositionNaut miles runAvg speedWind from/ knotsBaromVisibWave heightAir tempDewpointWater temp
2016-Aug-24 11:26N 37°04' W 029°22'1819.9
2016-Aug-24 10:33N 37°14' W 029°05'2019.6
2016-Aug-24 09:33N 37°26' W 028°45'2020.3
2016-Aug-24 08:33N 37°38' W 028°24'2019.6
2016-Aug-24 07:33N 37°49' W 028°04'2019.5
2016-Aug-24 06:33N 38°01' W 027°44'3819.1
2016-Aug-24 04:34N 38°24' W 027°05'1919.1
2016-Aug-24 03:33N 38°35' W 026°45'2019.5
2016-Aug-24 02:30N 38°48' W 026°25'75219.2
2016-Aug-22 11:27N 45°08' W 011°53'6119.3
2016-Aug-22 08:18N 45°30' W 010°32'13319.5
2016-Aug-22 01:26N 46°07' W 007°29'1719.2
2016-Aug-22 00:33N 46°11' W 007°05'1919.3
2016-Aug-21 23:33N 46°16' W 006°38'1919.1
2016-Aug-21 22:33N 46°21' W 006°11'1919.6
2016-Aug-21 21:33N 46°27' W 005°44'1919.3
2016-Aug-21 20:33N 46°32' W 005°17'1919.0
2016-Aug-21 19:33N 46°36' W 004°50'2020.1
2016-Aug-21 18:33N 46°42' W 004°22'2019.3
2016-Aug-21 17:32N 46°47' W 003°54'1818.5
2016-Aug-21 16:33N 46°52' W 003°29'1818.2
2016-Aug-21 15:33N 46°56' W 003°03'1817.5
2016-Aug-21 14:33N 47°01' W 002°38'1414.0
2016-Aug-21 13:34N 47°09' W 002°21'1212.0
2016-Aug-21 12:34N 47°18' W 002°09'0 0.1
2016-Aug-21 11:32N 47°18' W 002°09'0 0.0
2016-Aug-21 10:32N 47°18' W 002°09'0 0.0
2016-Aug-21 09:29N 47°18' W 002°09'0 0.0
2016-Aug-21 08:32N 47°18' W 002°09'0 0.0
2016-Aug-21 07:31N 47°18' W 002°09'0 0.0
2016-Aug-21 06:34N 47°18' W 002°09'0 0.0
2016-Aug-21 05:31N 47°18' W 002°09'0 0.0
2016-Aug-21 04:31N 47°18' W 002°09'0 0.0
2016-Aug-21 03:31N 47°18' W 002°09'0 0.0
2016-Aug-21 02:31N 47°18' W 002°09'0 0.0
2016-Aug-21 01:31N 47°18' W 002°09'0 0.0
2016-Aug-21 00:31N 47°18' W 002°09'6 6.4
2016-Aug-20 23:34N 47°14' W 002°16'1110.6
2016-Aug-20 22:33N 47°05' W 002°25'1110.8
2016-Aug-20 21:34N 46°60' W 002°39'1817.6
2016-Aug-20 20:31N 47°06' W 003°04'2019.9
2016-Aug-20 19:33N 47°14' W 003°31'2020.5
2016-Aug-20 18:33N 47°22' W 003°58'4620.9
2016-Aug-20 16:22N 47°40' W 005°00'1719.2
2016-Aug-20 15:28N 47°55' W 005°14'12313.7
2016-Aug-20 06:28N 49°42' W 003°40'1415.7
2016-Aug-20 05:33N 49°49' W 003°21'1717.4
2016-Aug-20 04:34N 49°58' W 002°58'6419.8
2016-Aug-20 01:21N 49°59' W 001°19'1721.9
2016-Aug-20 00:33N 49°50' W 000°56'2020.2
2016-Aug-19 23:33N 49°39' W 000°30'1817.7
2016-Aug-19 22:33N 49°31' W 000°05'1010.2
2016-Aug-19 21:32N 49°27' E 000°10'0 0.0
2016-Aug-19 20:32N 49°27' E 000°10'0 0.0
2016-Aug-19 19:32N 49°27' E 000°10'0 0.0
2016-Aug-19 18:32N 49°27' E 000°10'0 0.0
2016-Aug-19 17:32N 49°27' E 000°10'0 0.0
2016-Aug-19 16:32N 49°27' E 000°10'0 0.0
2016-Aug-19 15:32N 49°27' E 000°10'0 0.0
2016-Aug-19 14:32N 49°27' E 000°10'0 0.0
2016-Aug-19 13:32N 49°27' E 000°10'0 0.0
2016-Aug-19 12:32N 49°27' E 000°10'0 0.0
2016-Aug-19 11:32N 49°27' E 000°10'0 0.0
2016-Aug-19 10:32N 49°27' E 000°10'0 0.0
2016-Aug-19 09:32N 49°27' E 000°10'0 0.0
2016-Aug-19 08:31N 49°27' E 000°10'0 0.0
2016-Aug-19 07:28N 49°27' E 000°10'0 0.0
2016-Aug-19 06:31N 49°27' E 000°10'0 0.0
2016-Aug-19 05:31N 49°27' E 000°10'0 0.0
2016-Aug-19 04:31N 49°27' E 000°10'0 0.0
2016-Aug-19 03:31N 49°27' E 000°10'0 0.0
2016-Aug-19 02:31N 49°27' E 000°10'0 0.0
2016-Aug-19 01:31N 49°27' E 000°10'0 0.0
2016-Aug-19 00:31N 49°28' E 000°10'0 0.0
2016-Aug-18 23:31N 49°27' E 000°10'0 0.0
2016-Aug-18 22:31N 49°27' E 000°10'0 0.0
2016-Aug-18 21:31N 49°27' E 000°10'0 0.0
2016-Aug-18 20:31N 49°27' E 000°10'0 0.0
2016-Aug-18 19:31N 49°27' E 000°10'1 0.6
2016-Aug-18 18:32N 49°27' E 000°09'1010.5
2016-Aug-18 17:33N 49°31' W 000°06'4 3.5
2016-Aug-18 16:31N 49°35' W 000°08'0 0.0
2016-Aug-18 15:31N 49°35' W 000°08'0 0.0
2016-Aug-18 14:31N 49°35' W 000°08'0 0.0
2016-Aug-18 13:33N 49°35' W 000°08'6 6.2
2016-Aug-18 12:33N 49°41' W 000°10'1919.0
2016-Aug-18 11:33N 49°59' W 000°05'1918.7
2016-Aug-18 10:34N 50°18' W 000°02'1414.1
2016-Aug-18 09:33N 50°29' E 000°11'1816.9
2016-Aug-18 08:29N 50°38' E 000°36'1918.5
2016-Aug-18 07:26N 50°50' E 001°00'1821.0
2016-Aug-18 06:33N 51°02' E 001°22'2121.4
2016-Aug-18 05:34N 51°16' E 001°48'1919.3
2016-Aug-18 04:34N 51°32' E 002°04'1818.4
2016-Aug-18 03:33N 51°47' E 002°23'1817.7
2016-Aug-18 02:33N 51°60' E 002°42'1716.9
2016-Aug-18 01:33N 52°03' E 003°09'1818.3
2016-Aug-18 00:33N 52°04' E 003°39'1212.5
2016-Aug-17 23:33N 52°02' E 003°59'7 6.9
2016-Aug-17 22:33N 51°58' E 004°08'1110.7
2016-Aug-17 21:33N 51°54' E 004°24'1 1.2
2016-Aug-17 20:33N 51°54' E 004°26'0 0.0
2016-Aug-17 19:32N 51°54' E 004°26'0 0.0
2016-Aug-17 18:32N 51°54' E 004°26'0 0.0
2016-Aug-17 17:32N 51°54' E 004°26'0 0.0
2016-Aug-17 16:31N 51°54' E 004°26'0 0.0
2016-Aug-17 15:32N 51°54' E 004°26'0 0.0
2016-Aug-17 14:31N 51°54' E 004°26'0 0.0
2016-Aug-17 13:31N 51°54' E 004°26'0 0.0
2016-Aug-17 12:32N 51°53' E 004°26'0 0.0
2016-Aug-17 11:32N 51°53' E 004°26'0 0.0
2016-Aug-17 10:31N 51°54' E 004°26'0 0.0
2016-Aug-17 09:31N 51°54' E 004°26'0 0.1
2016-Aug-17 08:33N 51°54' E 004°26'5 5.4
2016-Aug-17 07:33N 51°54' E 004°17'1111.0
2016-Aug-17 06:33N 51°60' E 004°02'1111.5
2016-Aug-17 05:33N 51°59' E 003°43'8 7.9
2016-Aug-17 04:33N 51°57' E 003°31'1212.3
2016-Aug-17 03:33N 51°52' E 003°12'1919.1
2016-Aug-17 02:33N 51°38' E 002°52'1616.3
2016-Aug-17 01:34N 51°22' E 002°46'1312.7
2016-Aug-17 00:34N 51°24' E 003°06'5 4.5
2016-Aug-16 23:32N 51°21' E 003°11'0 0.0
2016-Aug-16 22:32N 51°21' E 003°11'0 0.0
2016-Aug-16 21:32N 51°21' E 003°11'0 0.0
2016-Aug-16 20:32N 51°21' E 003°11'0 0.0
2016-Aug-16 19:32N 51°21' E 003°11'0 0.0
2016-Aug-16 18:32N 51°21' E 003°11'0 0.0
2016-Aug-16 17:32N 51°21' E 003°11'0 0.0
2016-Aug-16 16:29N 51°21' E 003°11'0 0.0
2016-Aug-16 15:32N 51°21' E 003°11'0 0.0
2016-Aug-16 14:32N 51°21' E 003°11'0 0.0
2016-Aug-16 13:32N 51°21' E 003°11'0 0.0
2016-Aug-16 12:32N 51°21' E 003°11'5 4.7
2016-Aug-16 11:33N 51°24' E 003°06'1414.0
2016-Aug-16 10:33N 51°22' E 002°44'6 6.4
2016-Aug-16 09:34N 51°22' E 002°34'1414.2
2016-Aug-16 08:33N 51°16' E 002°12'1818.2
2016-Aug-16 07:33N 51°06' E 001°48'16 5.2
2016-Aug-16 04:33N 51°01' E 002°11'0 0.0
2016-Aug-16 03:27N 51°01' E 002°11'0 0.0
2016-Aug-16 02:33N 51°01' E 002°11'0 0.0
2016-Aug-16 01:33N 51°01' E 002°11'0 0.0
2016-Aug-16 00:32N 51°01' E 002°11'0 0.0
2016-Aug-15 23:26N 51°01' E 002°11'0 0.0
2016-Aug-15 22:32N 51°01' E 002°11'0 0.0
2016-Aug-15 21:11N 51°01' E 002°11'0 0.0
2016-Aug-15 20:26N 51°01' E 002°11'0 0.0
2016-Aug-15 19:29N 51°01' E 002°11'0 0.0
2016-Aug-15 18:29N 51°01' E 002°11'0 0.0
2016-Aug-15 17:29N 51°01' E 002°11'0 0.0
2016-Aug-15 16:32N 51°01' E 002°11'0 0.0
2016-Aug-15 15:26N 51°01' E 002°11'0 0.0
2016-Aug-15 14:20N 51°01' E 002°11'0 0.0
2016-Aug-15 13:32N 51°01' E 002°11'0 0.0
2016-Aug-15 12:32N 51°01' E 002°11'0 0.0
2016-Aug-15 11:23N 51°01' E 002°11'0 0.0
2016-Aug-15 10:05N 51°01' E 002°11'0 0.9
2016-Aug-15 09:32N 51°01' E 002°11'1111.1
2016-Aug-15 08:33N 51°02' E 001°54'1616.1
2016-Aug-15 07:33N 50°55' E 001°31'6120.1
2016-Aug-15 04:31N 50°21' E 000°11'2021.1
2016-Aug-15 03:33N 50°15' W 000°19'2320.7
2016-Aug-15 02:27N 50°09' W 000°53'1820.0
2016-Aug-15 01:33N 50°04' W 001°21'1919.2
2016-Aug-15 00:33N 49°59' W 001°50'1918.6
2016-Aug-14 23:33N 49°55' W 002°18'1918.9
2016-Aug-14 22:33N 49°50' W 002°46'2019.7
2016-Aug-14 21:33N 49°44' W 003°15'2019.8
2016-Aug-14 20:33N 49°39' W 003°45'2020.0
2016-Aug-14 19:33N 49°34' W 004°15'2020.1
2016-Aug-14 18:33N 49°29' W 004°45'2019.7
2016-Aug-14 17:32N 49°23' W 005°14'8 8.5
2016-Aug-14 16:33N 49°20' W 005°26'0 0.4
2016-Aug-14 15:33N 49°21' W 005°26'9 8.9
2016-Aug-14 14:33N 49°18' W 005°39'2121.1
2016-Aug-14 13:33N 49°11' W 006°10'2221.1
2016-Aug-14 12:32N 49°05' W 006°41'  

Dump ship's entire track history